createdAt,value
2022-09-06T05:44:37.485Z,18.60
2022-09-06T05:47:04.956Z,19.10
2022-09-06T05:49:35.035Z,19.30
2022-09-06T05:52:02.136Z,19.50
2022-09-06T05:54:29.070Z,19.60
2022-09-06T05:56:56.044Z,19.70
2022-09-06T05:59:22.863Z,19.70
2022-09-06T06:01:52.505Z,19.60
2022-09-06T06:04:20.839Z,19.70
2022-09-06T06:06:49.074Z,20.00
2022-09-06T06:09:21.604Z,20.20
2022-09-06T06:11:48.906Z,20.60
2022-09-06T06:14:15.679Z,20.90
2022-09-06T06:16:42.658Z,21.30
2022-09-06T06:19:10.905Z,21.60
2022-09-06T06:21:39.289Z,22.00
2022-09-06T06:24:06.752Z,22.40
2022-09-06T06:26:35.663Z,22.70
2022-09-06T06:29:03.191Z,23.00
2022-09-06T06:31:31.708Z,23.20
2022-09-06T06:33:59.466Z,23.40
2022-09-06T06:36:30.723Z,23.50
2022-09-06T06:38:58.566Z,23.60
2022-09-06T06:41:27.376Z,23.70
2022-09-06T06:43:56.261Z,23.80
2022-09-06T06:46:25.877Z,23.90
2022-09-06T06:48:55.204Z,23.90
2022-09-06T06:51:25.377Z,24.10
2022-09-06T06:53:52.727Z,24.20
2022-09-06T06:56:20.654Z,24.50
2022-09-06T06:58:49.897Z,24.70
2022-09-06T07:01:18.319Z,24.80
2022-09-06T07:03:45.240Z,24.80
2022-09-06T07:06:13.007Z,24.60
2022-09-06T07:08:41.325Z,24.70
2022-09-06T07:11:11.272Z,24.70
2022-09-06T07:13:38.475Z,24.90
2022-09-06T07:16:22.439Z,25.10
2022-09-06T07:18:52.576Z,25.20
2022-09-06T07:21:41.755Z,25.10
2022-09-06T07:24:09.411Z,25.10
2022-09-06T07:26:38.551Z,25.20
2022-09-06T07:29:07.105Z,25.20
2022-09-06T07:34:22.146Z,25.60
2022-09-06T07:36:51.780Z,25.60
2022-09-06T07:39:18.561Z,25.80
2022-09-06T07:41:45.503Z,25.80
2022-09-06T07:44:12.490Z,25.80
2022-09-06T07:46:39.651Z,25.80
2022-09-06T07:49:07.313Z,26.10
2022-09-06T07:51:34.210Z,26.10
2022-09-06T07:54:26.307Z,26.30
2022-09-06T07:56:48.166Z,26.30
2022-09-06T07:59:15.575Z,26.30
2022-09-06T08:01:42.748Z,26.50
2022-09-06T08:04:13.025Z,26.70
2022-09-06T08:09:33.533Z,26.50
2022-09-06T08:12:06.620Z,26.40
2022-09-06T08:14:34.440Z,26.40
2022-09-06T08:17:01.901Z,26.50
2022-09-06T08:19:28.850Z,26.60
2022-09-06T08:21:56.238Z,26.60
2022-09-06T08:24:23.417Z,26.70
2022-09-06T08:26:50.351Z,26.80
2022-09-06T08:29:18.934Z,26.80
2022-09-06T08:31:46.680Z,27.10
2022-09-06T08:34:15.084Z,27.40
2022-09-06T08:36:43.106Z,27.60
2022-09-06T08:39:10.557Z,27.60
2022-09-06T08:41:58.581Z,27.40
2022-09-06T08:44:58.481Z,27.20
2022-09-06T08:47:26.021Z,27.30
2022-09-06T08:50:02.276Z,27.40
2022-09-06T08:56:00.961Z,27.90
2022-09-06T08:58:51.199Z,28.10
2022-09-06T09:01:23.302Z,28.40
2022-09-06T09:03:53.154Z,28.70
2022-09-06T09:06:20.139Z,28.80
2022-09-06T09:09:06.412Z,28.80
2022-09-06T09:11:36.048Z,29.20
2022-09-06T09:14:08.657Z,29.60
2022-09-06T09:16:35.826Z,29.40
2022-09-06T09:19:05.353Z,29.60
2022-09-06T09:21:36.495Z,29.60
2022-09-06T09:24:09.355Z,29.50
2022-09-06T09:27:12.795Z,29.70
2022-09-06T09:32:49.526Z,29.80
2022-09-06T09:35:19.332Z,29.90
2022-09-06T09:37:47.424Z,29.90
2022-09-06T09:40:25.350Z,30.30
2022-09-06T09:42:54.074Z,30.60
2022-09-06T09:45:21.147Z,30.70
2022-09-06T09:47:48.332Z,30.90
2022-09-06T09:50:24.439Z,30.90
2022-09-06T09:52:51.437Z,30.90
2022-09-06T09:55:23.452Z,30.40
2022-09-06T09:57:51.870Z,29.70
2022-09-06T10:00:40.096Z,29.70
2022-09-06T10:03:19.246Z,29.90
2022-09-06T10:06:02.530Z,30.20
2022-09-06T10:08:33.857Z,30.70
2022-09-06T10:11:01.006Z,31.00
2022-09-06T10:13:30.270Z,30.90
2022-09-06T10:15:58.940Z,31.00
2022-09-06T10:18:29.871Z,31.10
2022-09-06T10:21:16.118Z,30.90
2022-09-06T10:26:52.509Z,30.70
2022-09-06T10:29:25.824Z,31.10
2022-09-06T10:32:31.093Z,31.40
2022-09-06T10:35:14.885Z,31.40
2022-09-06T10:37:55.699Z,31.50
2022-09-06T10:40:48.833Z,31.90
2022-09-06T10:43:19.129Z,32.40
2022-09-06T10:45:56.938Z,33.10
2022-09-06T10:48:27.480Z,33.00
2022-09-06T10:51:00.966Z,32.90
2022-09-06T10:53:42.860Z,33.30
2022-09-06T10:56:29.378Z,32.90
2022-09-06T10:59:35.945Z,32.80
2022-09-06T11:02:22.973Z,32.60
2022-09-06T11:10:45.430Z,32.40
2022-09-06T11:13:17.145Z,32.00
2022-09-06T11:15:59.321Z,31.90
2022-09-06T11:18:52.000Z,32.40
2022-09-06T11:21:31.042Z,32.20
2022-09-06T11:24:08.904Z,31.80
2022-09-06T11:26:58.872Z,31.90
2022-09-06T11:29:27.921Z,32.00
2022-09-06T11:32:19.296Z,32.10
2022-09-06T11:34:57.787Z,32.00
2022-09-06T11:37:33.349Z,31.70
2022-09-06T11:40:27.214Z,31.80
2022-09-06T11:42:55.199Z,32.00
2022-09-06T11:45:45.783Z,32.40
2022-09-06T11:48:34.590Z,32.70
2022-09-06T11:51:12.734Z,32.70
2022-09-06T11:53:48.658Z,32.50
2022-09-06T11:56:33.727Z,32.20
2022-09-06T11:59:10.504Z,32.00
2022-09-06T12:01:38.714Z,31.80
2022-09-06T12:04:08.640Z,32.00
2022-09-06T12:06:40.956Z,32.20
2022-09-06T12:09:29.794Z,32.40
2022-09-06T12:11:58.070Z,33.10
2022-09-06T12:14:36.354Z,33.20
2022-09-06T12:17:07.406Z,33.40
2022-09-06T12:19:51.842Z,33.50
2022-09-06T12:22:29.459Z,33.50
2022-09-06T12:25:02.295Z,33.70
2022-09-06T12:27:44.309Z,34.10
2022-09-06T12:30:13.964Z,34.10
2022-09-06T12:32:44.606Z,34.00
2022-09-06T12:38:16.035Z,33.70
2022-09-06T12:40:48.801Z,33.80
2022-09-06T12:43:18.379Z,34.20
2022-09-06T12:45:48.883Z,34.30
2022-09-06T12:48:31.137Z,34.30
2022-09-06T12:51:13.606Z,34.50
2022-09-06T12:53:40.490Z,34.40
2022-09-06T12:56:10.241Z,34.40
2022-09-06T12:58:38.701Z,34.40
2022-09-06T13:01:20.827Z,34.40
2022-09-06T13:04:03.019Z,34.20
2022-09-06T13:06:34.498Z,34.40
2022-09-06T13:09:02.293Z,34.50
2022-09-06T13:11:43.526Z,34.90
2022-09-06T13:14:17.200Z,35.10
2022-09-06T13:16:47.445Z,35.60
2022-09-06T13:19:29.729Z,35.80
2022-09-06T13:21:59.968Z,36.10
2022-09-06T13:24:34.496Z,36.50
2022-09-06T13:27:21.807Z,36.80
2022-09-06T13:30:07.024Z,36.90
2022-09-06T13:32:35.105Z,37.30
2022-09-06T13:35:02.795Z,37.00
2022-09-06T13:37:33.925Z,36.70
2022-09-06T13:40:05.080Z,36.60
2022-09-06T13:42:34.051Z,36.50
2022-09-06T13:45:28.008Z,36.80
2022-09-06T13:48:07.914Z,37.00
2022-09-06T13:50:42.711Z,37.30
2022-09-06T13:53:09.591Z,37.00
2022-09-06T13:55:36.572Z,36.10
2022-09-06T13:58:04.140Z,35.50
2022-09-06T14:00:31.402Z,35.40
2022-09-06T14:02:59.314Z,35.50
2022-09-06T14:05:26.202Z,35.00
2022-09-06T14:07:53.086Z,35.00
2022-09-06T14:10:22.179Z,34.80
2022-09-06T14:12:49.314Z,34.30
2022-09-06T14:15:16.364Z,33.60
2022-09-06T14:17:43.251Z,32.90
2022-09-06T14:20:10.700Z,33.00
2022-09-06T14:22:37.771Z,33.30
2022-09-06T14:25:06.991Z,33.20
2022-09-06T14:27:35.291Z,32.80
2022-09-06T14:30:02.575Z,32.30
2022-09-06T14:32:29.412Z,32.50
2022-09-06T14:34:56.490Z,33.10
2022-09-06T14:37:23.825Z,33.60
2022-09-06T14:39:50.909Z,34.00
2022-09-06T14:42:18.001Z,34.20
2022-09-06T14:44:44.911Z,34.50
2022-09-06T14:47:12.271Z,34.40
2022-09-06T14:49:39.962Z,34.60
2022-09-06T14:52:06.784Z,35.10
2022-09-06T14:54:33.646Z,35.90
2022-09-06T14:57:00.531Z,36.70
2022-09-06T14:59:27.491Z,37.00
2022-09-06T15:01:55.256Z,36.70
2022-09-06T15:04:22.250Z,35.70
2022-09-06T15:06:49.190Z,34.50
2022-09-06T15:09:23.073Z,34.10
2022-09-06T15:11:51.824Z,33.90
2022-09-06T15:14:26.487Z,33.30
2022-09-06T15:16:57.948Z,32.60
2022-09-06T15:19:27.403Z,32.10
2022-09-06T15:21:56.215Z,32.10
2022-09-06T15:24:23.816Z,32.00
2022-09-06T15:26:51.047Z,32.40
2022-09-06T15:29:18.098Z,33.10
2022-09-06T15:31:54.827Z,33.90
2022-09-06T15:34:24.197Z,34.20
2022-09-06T15:36:52.338Z,34.70
2022-09-06T15:39:20.185Z,34.60
2022-09-06T15:41:47.205Z,34.30
2022-09-06T15:44:16.490Z,33.80
2022-09-06T15:46:50.055Z,33.70
2022-09-06T15:49:27.541Z,33.80
2022-09-06T15:52:01.010Z,34.10
2022-09-06T15:54:47.419Z,33.90
2022-09-06T15:57:16.848Z,33.10
2022-09-06T15:59:44.648Z,32.30
2022-09-06T16:02:12.222Z,31.70
2022-09-06T16:04:40.004Z,31.10
2022-09-06T16:07:07.487Z,30.60
2022-09-06T16:09:34.446Z,30.10
2022-09-06T16:12:01.628Z,29.90
2022-09-06T16:14:29.019Z,29.60
2022-09-06T16:16:57.407Z,29.40
2022-09-06T16:19:26.107Z,29.10
2022-09-06T16:21:56.106Z,28.80
2022-09-06T16:24:23.327Z,28.50
2022-09-06T16:26:50.841Z,28.30
2022-09-06T16:29:19.046Z,28.10
2022-09-06T16:31:46.793Z,28.00
2022-09-06T16:34:14.704Z,27.70
2022-09-06T16:36:42.370Z,27.60
2022-09-06T16:39:11.345Z,27.50
2022-09-06T16:41:39.434Z,27.40
2022-09-06T16:44:07.835Z,27.30
2022-09-06T16:46:35.210Z,27.20
2022-09-06T16:49:03.371Z,27.10
2022-09-06T16:51:31.815Z,27.10
2022-09-06T16:53:59.841Z,27.00
2022-09-06T16:56:29.720Z,26.90
2022-09-06T16:59:02.086Z,26.90
2022-09-06T17:01:35.543Z,26.80
2022-09-06T17:04:04.001Z,26.80
2022-09-06T17:06:33.294Z,26.70
2022-09-06T17:09:01.658Z,26.70
2022-09-06T17:11:41.072Z,26.60
2022-09-06T17:14:28.122Z,26.50
2022-09-06T17:17:08.502Z,26.40
2022-09-06T17:19:41.011Z,26.30
2022-09-06T17:22:12.770Z,26.30
2022-09-06T17:24:41.912Z,26.30
2022-09-06T17:27:14.952Z,26.20
2022-09-06T17:29:47.869Z,26.20
2022-09-06T17:32:20.350Z,26.20
2022-09-06T17:34:57.714Z,26.10
2022-09-06T17:37:25.318Z,26.00
2022-09-06T17:39:55.220Z,25.90
2022-09-06T17:42:26.063Z,25.80
2022-09-06T17:44:56.339Z,25.80
2022-09-06T17:47:35.393Z,25.70
2022-09-06T17:50:06.364Z,25.60
2022-09-06T17:52:37.443Z,25.50
2022-09-06T17:55:12.957Z,25.40
2022-09-06T17:57:45.626Z,25.30
2022-09-06T18:00:29.934Z,25.30
2022-09-06T18:03:00.682Z,25.10
2022-09-06T18:05:44.194Z,25.10
2022-09-06T18:08:27.194Z,25.00
2022-09-06T18:25:44.138Z,24.60
2022-09-06T18:28:13.745Z,24.60
2022-09-06T18:30:41.686Z,24.60
2022-09-06T18:33:13.152Z,24.50
2022-09-06T18:35:59.987Z,24.50
2022-09-06T18:38:27.843Z,24.40
2022-09-06T18:41:00.953Z,24.40
2022-09-06T18:43:39.962Z,24.30
2022-09-06T18:46:14.741Z,24.20
2022-09-06T18:48:42.084Z,24.20
2022-09-06T18:51:14.057Z,24.10
2022-09-06T18:53:45.954Z,24.10
2022-09-06T18:56:14.650Z,23.90
2022-09-06T18:58:42.582Z,23.90
2022-09-06T19:01:13.083Z,23.80
2022-09-06T19:03:41.563Z,23.80
2022-09-06T19:06:12.288Z,23.70
2022-09-06T19:08:40.736Z,23.70
2022-09-06T19:11:14.326Z,23.60
2022-09-06T19:13:50.851Z,23.60
2022-09-06T19:16:18.885Z,23.60
2022-09-06T19:18:49.812Z,23.50
2022-09-06T19:21:27.016Z,23.50
2022-09-06T19:23:58.989Z,23.50
2022-09-06T19:26:29.469Z,23.40
2022-09-06T19:29:04.362Z,23.40
2022-09-06T19:31:34.198Z,23.40
2022-09-06T19:34:01.644Z,23.40
2022-09-06T19:36:34.090Z,23.40
2022-09-06T19:39:05.323Z,23.40
2022-09-06T19:41:38.823Z,23.40
2022-09-06T19:44:08.714Z,23.40
2022-09-06T19:46:37.454Z,23.30
2022-09-06T19:49:08.766Z,23.30
2022-09-06T19:51:37.687Z,23.20
2022-09-06T19:54:05.736Z,23.10
2022-09-06T19:56:37.297Z,23.10
2022-09-06T19:59:07.431Z,23.10
2022-09-06T20:01:38.047Z,23.10
2022-09-06T20:04:18.305Z,23.20
2022-09-06T20:06:48.874Z,23.30
2022-09-06T20:09:16.136Z,23.20
2022-09-06T20:11:43.690Z,23.30
2022-09-06T20:14:11.672Z,23.40
2022-09-06T20:16:42.075Z,23.40
2022-09-06T20:19:09.895Z,23.40
2022-09-06T20:21:36.750Z,23.40
2022-09-06T20:24:03.680Z,23.30
2022-09-06T20:26:30.703Z,23.30
2022-09-06T20:29:00.451Z,23.20
2022-09-06T20:31:29.643Z,23.20
2022-09-06T20:33:59.544Z,23.20
2022-09-06T20:36:26.522Z,23.20
2022-09-06T20:38:53.528Z,23.20
2022-09-06T20:41:23.792Z,23.00
2022-09-06T20:43:56.067Z,22.90
2022-09-06T20:46:25.653Z,22.70
2022-09-06T20:48:53.223Z,22.60
2022-09-06T20:51:23.420Z,22.50
2022-09-06T20:54:00.489Z,22.40
2022-09-06T20:56:36.959Z,22.30
2022-09-06T20:59:06.606Z,22.30
2022-09-06T21:01:36.042Z,22.30
2022-09-06T21:04:05.927Z,22.40
2022-09-06T21:06:35.739Z,22.40
2022-09-06T21:09:11.730Z,22.30
2022-09-06T21:11:39.267Z,22.30
2022-09-06T21:14:07.643Z,22.30
2022-09-06T21:16:34.661Z,22.20
2022-09-06T21:19:04.329Z,22.20
2022-09-06T21:21:32.610Z,22.10
2022-09-06T21:24:05.026Z,22.00
2022-09-06T21:26:32.489Z,22.00
2022-09-06T21:28:59.718Z,21.90
2022-09-06T21:31:31.818Z,22.00
2022-09-06T21:34:03.186Z,22.00
2022-09-06T21:36:34.291Z,21.90
2022-09-06T21:39:06.778Z,21.90
2022-09-06T21:41:36.351Z,21.90
2022-09-06T21:44:07.326Z,22.00
2022-09-06T21:46:37.285Z,22.00
2022-09-06T21:49:10.505Z,21.90
2022-09-06T21:51:38.667Z,21.80
2022-09-06T21:54:06.304Z,21.70
2022-09-06T21:56:37.962Z,21.70
2022-09-06T21:59:06.684Z,21.60
2022-09-06T22:01:35.723Z,21.40
2022-09-06T22:04:03.550Z,21.20
2022-09-06T22:06:32.447Z,20.90
2022-09-06T22:09:03.832Z,20.40
2022-09-06T22:11:32.872Z,19.90
2022-09-06T22:14:08.056Z,19.20
2022-09-06T22:16:37.574Z,18.50
2022-09-06T22:19:07.823Z,18.10
2022-09-06T22:21:35.328Z,17.80
2022-09-06T22:24:05.712Z,17.60
2022-09-06T22:26:34.951Z,17.30
2022-09-06T22:29:05.183Z,17.20
2022-09-06T22:31:33.852Z,17.10
2022-09-06T22:34:01.440Z,17.00
2022-09-06T22:36:29.273Z,17.00
2022-09-06T22:38:57.569Z,16.90
2022-09-06T22:41:31.703Z,16.90
2022-09-06T22:44:02.729Z,16.90
2022-09-06T22:46:31.067Z,16.80
2022-09-06T22:48:58.709Z,16.80
2022-09-06T22:51:25.995Z,16.90
2022-09-06T22:53:56.458Z,16.80
2022-09-06T22:56:26.956Z,16.90
2022-09-06T22:59:01.994Z,16.90
2022-09-06T23:01:29.295Z,17.00
2022-09-06T23:03:56.350Z,16.90
2022-09-06T23:06:23.339Z,16.90
2022-09-06T23:08:50.378Z,17.00
2022-09-06T23:11:19.478Z,16.90
2022-09-06T23:13:47.457Z,17.00
2022-09-06T23:16:17.552Z,17.00
2022-09-06T23:18:44.977Z,17.00
2022-09-06T23:21:14.838Z,16.90
2022-09-06T23:23:42.266Z,16.90
2022-09-06T23:26:15.829Z,17.00
2022-09-06T23:28:43.420Z,17.00
2022-09-06T23:31:12.931Z,17.00
2022-09-06T23:33:41.835Z,17.00
2022-09-06T23:36:11.649Z,17.00
2022-09-06T23:38:40.129Z,17.10
2022-09-06T23:41:09.301Z,17.10
2022-09-06T23:43:36.895Z,17.20
2022-09-06T23:46:04.085Z,17.20
2022-09-06T23:48:31.133Z,17.30
2022-09-06T23:50:58.206Z,17.30
2022-09-06T23:53:25.128Z,17.30
2022-09-06T23:55:52.142Z,17.30
2022-09-06T23:58:19.417Z,17.30
